Time;durP1;ratioP1;P1;durP2;ratioP2;P2;SDS_P1;SDS_P2;PMS_P1;PMS_P2;Temp;Humidity;BMP_temperature;BMP_pressure;BME280_temperature;BME280_humidity;BME280_pressure;Samples;Min_cycle;Max_cycle;Signal;HPM_P1;HPM_P2
2022/10/29 00:00:20;;;;;;;12.60;2.87;;;;;;;16.64;89.32;101467.28;6001200;28;20146;-68
2022/10/29 00:03:15;;;;;;;12.05;3.70;;;;;;;16.77;89.16;101481.00;6001800;28;20037;-68
2022/10/29 00:06:11;;;;;;;11.02;3.40;;;;;;;16.67;88.59;101459.75;6001791;28;20097;-68
2022/10/29 00:09:06;;;;;;;12.32;3.65;;;;;;;16.82;88.49;101464.44;6001808;28;20035;-68
2022/10/29 00:12:02;;;;;;;12.93;3.30;;;;;;;16.69;88.89;101461.44;6001309;28;20093;-68
2022/10/29 00:14:57;;;;;;;11.10;3.83;;;;;;;16.71;89.54;101473.66;6001384;28;20533;-68
2022/10/29 00:17:52;;;;;;;9.80;3.60;;;;;;;16.63;89.89;101469.09;6002001;28;20382;-68
2022/10/29 00:20:48;;;;;;;10.60;3.53;;;;;;;16.67;90.03;101480.34;6001227;28;20381;-68
2022/10/29 00:23:44;;;;;;;10.05;3.30;;;;;;;16.59;90.12;101478.50;6001165;28;20707;-68
2022/10/29 00:26:40;;;;;;;13.85;3.80;;;;;;;16.63;90.02;101479.00;6001252;28;20039;-67
2022/10/29 00:29:35;;;;;;;15.07;3.50;;;;;;;16.73;90.23;101494.91;6001741;28;20042;-67
2022/10/29 00:32:30;;;;;;;11.33;3.83;;;;;;;16.64;90.89;101486.88;6000863;28;20026;-68
2022/10/29 00:35:26;;;;;;;8.90;3.30;;;;;;;16.75;90.54;101491.06;6000993;28;20065;-68
2022/10/29 00:38:21;;;;;;;12.93;3.80;;;;;;;16.81;90.11;101495.75;6000981;28;20022;-69
2022/10/29 00:41:20;;;;;;;13.80;4.75;;;;;;;16.81;90.01;101500.25;6000665;28;20432;-68
2022/10/29 00:44:24;;;;;;;10.55;3.65;;;;;;;16.82;90.37;101515.34;6000508;28;20027;-68
2022/10/29 00:47:27;;;;;;;11.55;3.33;;;;;;;16.75;91.13;101511.63;5992608;28;20043;-68
2022/10/29 00:50:23;;;;;;;10.27;3.80;;;;;;;16.68;91.60;101492.72;5996493;28;20066;-68
2022/10/29 00:53:22;;;;;;;9.50;3.55;;;;;;;16.69;91.43;101493.59;5999780;28;20026;-68
2022/10/29 00:56:18;;;;;;;11.40;3.75;;;;;;;16.66;90.93;101511.63;5999426;28;20118;-68
2022/10/29 00:59:15;;;;;;;14.60;4.22;;;;;;;16.67;91.27;101513.31;6000954;28;20037;-68
2022/10/29 01:02:11;;;;;;;13.25;4.38;;;;;;;16.71;91.37;101507.63;6000141;28;20037;-68
2022/10/29 01:05:08;;;;;;;18.42;3.90;;;;;;;16.69;91.29;101512.31;6000466;28;20034;-68
2022/10/29 01:08:03;;;;;;;11.02;3.67;;;;;;;16.70;90.53;101508.63;6000158;28;20067;-68
2022/10/29 01:11:36;;;;;;;15.93;3.22;;;;;;;16.69;90.01;101504.28;5999641;28;20042;-68
2022/10/29 01:15:00;;;;;;;9.40;2.85;;;;;;;16.62;90.21;101514.81;6000175;28;20121;-68
2022/10/29 01:17:59;;;;;;;10.23;3.78;;;;;;;16.67;90.04;101523.19;5995500;28;20046;-68
2022/10/29 01:21:17;;;;;;;15.80;3.63;;;;;;;16.64;89.62;101508.28;5999690;28;20039;-68
2022/10/29 01:24:15;;;;;;;6.72;3.03;;;;;;;16.58;90.19;101511.63;5998909;28;20101;-68
2022/10/29 01:27:41;;;;;;;11.65;3.22;;;;;;;16.52;90.33;101517.59;6000198;28;20035;-68
2022/10/29 01:30:45;;;;;;;9.07;2.97;;;;;;;16.50;90.55;101524.97;5993012;28;20035;-68
2022/10/29 01:34:10;;;;;;;10.85;3.70;;;;;;;16.46;90.88;101515.59;5992973;28;20042;-68
2022/10/29 01:37:23;;;;;;;12.32;3.20;;;;;;;16.42;90.59;101492.81;6000297;28;20130;-68
2022/10/29 01:40:37;;;;;;;12.60;4.68;;;;;;;16.54;90.63;101520.16;5997973;28;20033;-68
2022/10/29 01:43:37;;;;;;;8.73;3.13;;;;;;;16.37;91.08;101511.22;5998142;28;20771;-68
2022/10/29 01:46:39;;;;;;;;;;;;;;;16.40;91.60;101520.75;5993065;28;20043;-68
2022/10/29 01:49:41;;;;;;;9.65;3.72;;;;;;;16.24;91.81;101502.00;5998025;28;19945;-68
2022/10/29 01:52:37;;;;;;;10.18;2.83;;;;;;;16.21;92.14;101505.00;6001530;28;20041;-68
2022/10/29 01:55:35;;;;;;;8.70;3.53;;;;;;;16.03;92.84;101497.09;5998776;28;20121;-68
2022/10/29 01:58:31;;;;;;;8.25;3.03;;;;;;;15.89;93.32;101503.03;5999430;28;20430;-68
2022/10/29 02:01:50;;;;;;;15.35;3.50;;;;;;;15.76;94.67;101506.16;5999265;28;20050;-69
2022/10/29 02:05:01;;;;;;;9.88;3.28;;;;;;;15.75;95.04;101522.38;5998017;28;20046;-68
2022/10/29 02:08:19;;;;;;;11.13;3.95;;;;;;;15.68;95.53;101510.66;5999311;28;20031;-68
2022/10/29 02:11:21;;;;;;;11.10;2.83;;;;;;;15.86;96.24;101519.41;5991173;28;20047;-68
2022/10/29 02:14:21;;;;;;;9.93;3.58;;;;;;;15.95;95.31;101511.25;5998235;28;20193;-68
2022/10/29 02:17:16;;;;;;;10.02;4.05;;;;;;;15.92;94.82;101516.09;5999026;28;20038;-68
2022/10/29 02:20:12;;;;;;;11.80;3.53;;;;;;;15.89;94.42;101506.56;5998906;28;20058;-69
2022/10/29 02:23:08;;;;;;;12.80;4.25;;;;;;;15.90;94.85;101520.75;5998863;28;20082;-68
2022/10/29 02:26:03;;;;;;;7.75;3.42;;;;;;;15.79;95.52;101515.72;5998427;28;20038;-68
2022/10/29 02:28:59;;;;;;;11.13;4.03;;;;;;;15.70;95.91;101509.47;5998978;28;20046;-68
2022/10/29 02:31:54;;;;;;;9.60;3.67;;;;;;;15.62;96.24;101509.44;5998198;28;20034;-68
2022/10/29 02:34:49;;;;;;;16.20;4.43;;;;;;;15.67;96.21;101495.59;5999243;28;20291;-68
2022/10/29 02:37:44;;;;;;;10.73;3.13;;;;;;;15.60;96.15;101518.63;5999324;28;20467;-68
2022/10/29 02:40:40;;;;;;;10.00;3.17;;;;;;;15.41;97.09;101516.94;5997990;28;20070;-69
2022/10/29 02:43:35;;;;;;;13.00;3.77;;;;;;;15.39;97.92;101509.09;5999328;28;20026;-68
2022/10/29 02:46:30;;;;;;;11.93;4.43;;;;;;;15.49;98.02;101512.53;6001571;28;20031;-68
2022/10/29 02:49:26;;;;;;;10.93;2.90;;;;;;;15.51;97.09;101507.03;6003631;28;20332;-68
2022/10/29 02:52:21;;;;;;;14.07;4.80;;;;;;;15.34;97.82;101498.03;6002708;28;20066;-68
2022/10/29 02:55:16;;;;;;;7.53;3.07;;;;;;;15.39;98.60;101485.03;6003252;28;20321;-69
2022/10/29 02:58:12;;;;;;;9.40;3.70;;;;;;;15.38;98.12;101478.00;6003222;28;20675;-68
2022/10/29 03:01:07;;;;;;;12.63;3.47;;;;;;;15.39;98.14;101492.22;6002823;28;20054;-68
2022/10/29 03:04:02;;;;;;;12.00;3.73;;;;;;;15.29;98.71;101489.66;6003513;28;20039;-68
2022/10/29 03:06:58;;;;;;;10.50;4.33;;;;;;;15.21;98.91;101496.78;6003555;28;20035;-68
2022/10/29 03:09:53;;;;;;;12.02;3.92;;;;;;;15.05;100.00;101492.19;6003110;28;20329;-68
2022/10/29 03:12:49;;;;;;;11.53;4.00;;;;;;;15.02;100.00;101489.81;6002431;28;20038;-68
2022/10/29 03:15:44;;;;;;;10.43;4.47;;;;;;;14.95;100.00;101475.38;6002637;28;20438;-68
2022/10/29 03:18:40;;;;;;;13.65;4.72;;;;;;;14.87;100.00;101481.50;6003293;28;20035;-68
2022/10/29 03:21:35;;;;;;;14.33;4.50;;;;;;;14.75;100.00;101481.91;6002379;28;20035;-68
2022/10/29 03:24:30;;;;;;;11.77;4.50;;;;;;;14.70;100.00;101479.69;6002724;28;20792;-68
2022/10/29 03:27:26;;;;;;;13.53;4.57;;;;;;;14.62;100.00;101478.81;6002139;28;20043;-69
2022/10/29 03:30:21;;;;;;;10.70;4.90;;;;;;;14.56;100.00;101477.59;6002059;28;20035;-68
2022/10/29 03:33:16;;;;;;;13.93;4.63;;;;;;;14.56;100.00;101466.91;6002999;28;20078;-68
2022/10/29 03:36:11;;;;;;;18.33;4.87;;;;;;;14.62;100.00;101468.94;6002305;28;20046;-68
2022/10/29 03:39:07;;;;;;;10.63;4.50;;;;;;;14.57;100.00;101465.06;6002786;28;20035;-68
2022/10/29 03:42:02;;;;;;;9.90;4.67;;;;;;;14.45;100.00;101456.47;6001602;28;20026;-68
2022/10/29 03:44:59;;;;;;;15.45;4.47;;;;;;;14.38;100.00;101451.88;6002109;28;20278;-69
2022/10/29 03:47:55;;;;;;;10.52;4.30;;;;;;;14.38;100.00;101457.22;6001222;28;20054;-68
2022/10/29 03:50:58;;;;;;;13.10;4.65;;;;;;;14.36;100.00;101459.19;6001477;28;20539;-68
2022/10/29 03:53:54;;;;;;;14.10;4.50;;;;;;;14.33;100.00;101455.00;6002767;28;20031;-68
2022/10/29 03:56:49;;;;;;;12.60;4.97;;;;;;;14.40;100.00;101465.91;6001434;28;20054;-68
2022/10/29 03:59:45;;;;;;;17.33;5.20;;;;;;;14.39;100.00;101458.88;6002021;28;20285;-68
2022/10/29 04:02:40;;;;;;;13.40;4.90;;;;;;;14.45;100.00;101459.13;6001344;28;20065;-69
2022/10/29 04:05:36;;;;;;;13.03;4.90;;;;;;;14.48;100.00;101487.34;6002051;28;20118;-68
2022/10/29 04:08:31;;;;;;;13.60;5.30;;;;;;;14.46;100.00;101490.16;6001843;28;20046;-68
2022/10/29 04:11:26;;;;;;;12.67;6.10;;;;;;;14.45;100.00;101477.81;6001571;28;20439;-68
2022/10/29 04:14:22;;;;;;;16.57;5.77;;;;;;;14.48;100.00;101476.66;6001713;28;20033;-68
2022/10/29 04:17:17;;;;;;;16.47;5.57;;;;;;;14.58;100.00;101491.59;6003044;28;20035;-68
2022/10/29 04:20:13;;;;;;;14.70;6.37;;;;;;;14.57;100.00;101478.41;6001231;28;20070;-68
2022/10/29 04:23:09;;;;;;;17.63;5.95;;;;;;;14.62;100.00;101490.28;6001925;28;20027;-68
2022/10/29 04:26:04;;;;;;;11.05;5.30;;;;;;;14.67;100.00;101489.84;6001483;28;20118;-68
2022/10/29 04:28:59;;;;;;;25.53;6.37;;;;;;;14.69;100.00;101490.53;6001202;28;20034;-68
2022/10/29 04:31:55;;;;;;;16.97;6.70;;;;;;;14.69;100.00;101488.72;6000550;28;20031;-68
2022/10/29 04:34:50;;;;;;;18.37;5.47;;;;;;;14.70;100.00;101497.56;6001153;28;20777;-68
2022/10/29 04:37:46;;;;;;;15.90;4.83;;;;;;;14.60;100.00;101488.78;6001209;28;20039;-68
2022/10/29 04:40:42;;;;;;;19.70;6.72;;;;;;;14.53;100.00;101487.72;6000813;28;20434;-68
2022/10/29 04:43:38;;;;;;;14.47;5.57;;;;;;;14.56;100.00;101501.59;6001506;28;20050;-67
2022/10/29 04:46:34;;;;;;;17.80;5.53;;;;;;;14.49;100.00;101491.66;6001293;28;20034;-68
2022/10/29 04:49:29;;;;;;;15.23;5.27;;;;;;;14.40;100.00;101484.59;6000454;28;20034;-67
2022/10/29 04:52:24;;;;;;;18.90;6.47;;;;;;;14.44;100.00;101494.81;5999932;28;20460;-67
2022/10/29 04:55:20;;;;;;;15.20;5.07;;;;;;;14.44;100.00;101496.63;6001041;28;20031;-67
2022/10/29 04:58:19;;;;;;;14.90;5.43;;;;;;;14.48;100.00;101495.34;5976257;28;20047;-67
2022/10/29 05:01:14;;;;;;;11.68;4.95;;;;;;;14.43;100.00;101479.78;6012439;28;20394;-67
2022/10/29 05:04:09;;;;;;;15.97;5.90;;;;;;;14.45;100.00;101477.81;6000744;28;20067;-67
2022/10/29 05:07:05;;;;;;;12.30;4.63;;;;;;;14.34;100.00;101479.84;6000700;28;20034;-67
2022/10/29 05:10:00;;;;;;;16.60;4.93;;;;;;;14.40;100.00;101474.75;6000568;28;20035;-67
2022/10/29 05:12:59;;;;;;;15.53;5.10;;;;;;;14.43;100.00;101485.09;5979763;28;20086;-67
2022/10/29 05:15:55;;;;;;;15.32;4.25;;;;;;;14.30;100.00;101472.13;6000614;28;20041;-68
2022/10/29 05:18:50;;;;;;;11.90;4.53;;;;;;;14.29;100.00;101491.78;6000220;28;20490;-68
2022/10/29 05:21:45;;;;;;;13.73;5.10;;;;;;;14.22;100.00;101487.19;6000087;28;20077;-67
2022/10/29 05:24:41;;;;;;;15.07;4.10;;;;;;;14.28;100.00;101500.78;5995837;28;20097;-67
2022/10/29 05:27:36;;;;;;;12.10;4.50;;;;;;;14.38;100.00;101490.06;5991619;28;20101;-67
2022/10/29 05:30:32;;;;;;;14.07;4.67;;;;;;;14.34;100.00;101483.38;6000051;28;20277;-67
2022/10/29 05:33:27;;;;;;;14.30;5.63;;;;;;;14.50;100.00;101491.53;5999380;28;20097;-67
2022/10/29 05:36:23;;;;;;;13.83;4.93;;;;;;;14.59;100.00;101487.13;6000296;28;20713;-68
2022/10/29 05:39:18;;;;;;;11.03;5.00;;;;;;;14.60;100.00;101488.78;5999645;28;20439;-68
2022/10/29 05:42:13;;;;;;;16.03;4.87;;;;;;;14.58;99.82;101480.09;5999052;28;20309;-67
2022/10/29 05:45:09;;;;;;;15.27;5.73;;;;;;;14.64;99.93;101485.66;5999757;28;20101;-67
2022/10/29 05:48:04;;;;;;;14.98;4.65;;;;;;;14.62;99.56;101486.81;5999422;28;20035;-67
2022/10/29 05:51:00;;;;;;;13.02;5.45;;;;;;;14.62;99.65;101476.13;5998339;28;20112;-68
2022/10/29 05:53:55;;;;;;;20.13;5.57;;;;;;;14.57;99.59;101489.06;5999872;28;20430;-67
2022/10/29 05:56:50;;;;;;;17.30;5.43;;;;;;;14.55;99.74;101486.56;5999143;28;20283;-67
2022/10/29 05:59:45;;;;;;;21.13;4.50;;;;;;;14.71;99.84;101507.22;5999743;28;20484;-67
2022/10/29 06:02:44;;;;;;;12.88;5.35;;;;;;;14.68;99.44;101496.84;5998552;28;20030;-67
2022/10/29 06:05:39;;;;;;;15.15;4.30;;;;;;;14.75;99.74;101513.97;5999323;28;20039;-67
2022/10/29 06:08:34;;;;;;;15.80;5.22;;;;;;;14.89;98.85;101508.06;5999183;28;20034;-68
2022/10/29 06:11:30;;;;;;;16.17;5.43;;;;;;;14.83;98.60;101493.50;5999069;28;20360;-67
2022/10/29 06:14:25;;;;;;;12.73;5.20;;;;;;;14.86;98.56;101501.22;5998651;28;20074;-67
2022/10/29 06:17:20;;;;;;;16.20;5.17;;;;;;;14.69;99.26;101495.88;5999138;28;20035;-67
2022/10/29 06:20:18;;;;;;;13.47;4.80;;;;;;;14.73;99.18;101511.41;5998551;28;20444;-67
2022/10/29 06:23:13;;;;;;;17.48;5.57;;;;;;;14.66;99.72;101504.19;5998760;28;20061;-67
2022/10/29 06:26:09;;;;;;;16.03;4.63;;;;;;;14.65;100.00;101516.69;5999315;28;20479;-68
2022/10/29 06:29:04;;;;;;;14.40;4.77;;;;;;;14.80;99.71;101511.66;5999123;28;20270;-67
2022/10/29 06:32:00;;;;;;;12.52;4.88;;;;;;;14.77;98.99;101498.63;5997957;28;20834;-67
2022/10/29 06:34:55;;;;;;;14.20;4.77;;;;;;;14.80;99.47;101509.84;5998959;28;20038;-67
2022/10/29 06:37:50;;;;;;;14.40;4.80;;;;;;;14.99;99.17;101511.50;5998425;28;20279;-67
2022/10/29 06:40:52;;;;;;;15.87;4.97;;;;;;;15.04;98.32;101519.88;5998426;28;20058;-67
2022/10/29 06:43:47;;;;;;;13.45;5.18;;;;;;;15.11;97.83;101526.25;5997655;28;20289;-67
2022/10/29 06:46:43;;;;;;;16.97;4.97;;;;;;;15.22;97.42;101518.00;5998728;28;20719;-67
2022/10/29 06:49:38;;;;;;;15.80;5.00;;;;;;;15.28;96.85;101513.84;5998943;28;20031;-67
2022/10/29 06:52:34;;;;;;;10.13;4.33;;;;;;;15.42;96.27;101514.13;5998012;28;20031;-68
2022/10/29 06:55:29;;;;;;;12.40;4.90;;;;;;;15.61;95.31;101525.63;5998754;28;20090;-68
2022/10/29 06:58:24;;;;;;;11.95;4.82;;;;;;;15.56;95.29;101519.91;5998089;28;20066;-67
2022/10/29 07:01:20;;;;;;;14.37;4.70;;;;;;;15.39;95.36;101498.41;5998297;28;20027;-68
2022/10/29 07:04:17;;;;;;;10.87;3.77;;;;;;;15.55;95.41;101535.13;5995983;28;20070;-67
2022/10/29 07:07:12;;;;;;;17.98;4.65;;;;;;;15.47;95.84;101516.34;6001535;28;20389;-68
2022/10/29 07:10:08;;;;;;;12.23;4.68;;;;;;;15.53;96.64;101537.13;5998943;28;20023;-68
2022/10/29 07:13:03;;;;;;;14.18;4.07;;;;;;;15.66;96.61;101520.63;5998096;28;20463;-67
2022/10/29 07:15:59;;;;;;;12.90;4.05;;;;;;;15.82;95.38;101510.00;5998251;28;20043;-67
2022/10/29 07:18:55;;;;;;;11.93;4.63;;;;;;;15.97;93.93;101516.44;5998084;28;20034;-68
2022/10/29 07:21:50;;;;;;;12.23;4.63;;;;;;;16.01;93.80;101515.97;5996933;28;20801;-67
2022/10/29 07:24:45;;;;;;;20.33;5.07;;;;;;;15.82;94.00;101500.16;5998256;28;20463;-68
2022/10/29 07:27:41;;;;;;;14.30;4.43;;;;;;;15.89;93.73;101516.41;5997840;28;20306;-67
2022/10/29 07:30:36;;;;;;;13.07;4.60;;;;;;;15.85;94.30;101517.72;5997900;28;20286;-67
2022/10/29 07:33:32;;;;;;;13.50;5.82;;;;;;;15.94;94.07;101508.75;6000688;28;20039;-68
2022/10/29 07:36:30;;;;;;;11.82;4.53;;;;;;;15.78;94.33;101516.69;6001999;28;20493;-68
2022/10/29 07:39:25;;;;;;;11.82;4.30;;;;;;;15.79;95.14;101518.38;6002842;28;20497;-67
2022/10/29 07:42:22;;;;;;;12.70;4.63;;;;;;;15.90;95.05;101534.13;6000847;28;20062;-67
2022/10/29 07:45:17;;;;;;;15.07;4.40;;;;;;;15.87;94.23;101526.44;6001847;28;20030;-68
2022/10/29 07:48:12;;;;;;;18.63;6.80;;;;;;;16.02;93.70;101519.47;6001304;28;20462;-67
2022/10/29 07:51:08;;;;;;;14.43;6.13;;;;;;;15.99;93.54;101523.31;6001105;28;20123;-68
2022/10/29 07:54:03;;;;;;;21.60;5.93;;;;;;;16.11;92.53;101525.69;6002259;28;20670;-67
2022/10/29 07:56:58;;;;;;;21.13;6.40;;;;;;;15.97;93.46;101521.81;6001936;28;20117;-67
2022/10/29 07:59:54;;;;;;;12.20;5.13;;;;;;;16.02;92.84;101508.78;6002338;28;20161;-68
2022/10/29 08:02:53;;;;;;;16.17;4.85;;;;;;;16.10;93.11;101519.50;6001337;28;20038;-68
2022/10/29 08:05:49;;;;;;;15.10;5.72;;;;;;;16.06;93.08;101496.75;6001841;28;20035;-67
2022/10/29 08:08:44;;;;;;;17.48;5.32;;;;;;;16.21;92.91;101492.44;6001922;28;20033;-68
2022/10/29 08:11:39;;;;;;;14.23;5.20;;;;;;;16.41;91.75;101493.00;6000903;28;20171;-68
2022/10/29 08:14:35;;;;;;;19.70;5.27;;;;;;;16.57;91.22;101504.63;6001561;28;20414;-68
2022/10/29 08:17:33;;;;;;;19.45;5.43;;;;;;;16.78;89.39;101489.88;6001810;28;20034;-68
2022/10/29 08:20:29;;;;;;;14.13;5.15;;;;;;;17.04;88.61;101487.88;6000602;28;20090;-67
2022/10/29 08:23:24;;;;;;;15.35;5.10;;;;;;;17.37;86.84;101496.69;6001716;28;20081;-67
2022/10/29 08:26:20;;;;;;;13.63;4.43;;;;;;;17.70;85.25;101509.03;6001012;28;20031;-67
2022/10/29 08:29:15;;;;;;;17.97;4.23;;;;;;;17.93;83.64;101501.09;6001618;28;20031;-67
2022/10/29 08:32:10;;;;;;;17.13;5.80;;;;;;;18.16;82.28;101486.69;6000545;28;20310;-67
2022/10/29 08:35:06;;;;;;;14.27;4.97;;;;;;;18.44;81.03;101487.88;6001034;28;20023;-68
2022/10/29 08:38:01;;;;;;;17.98;6.53;;;;;;;18.45;80.58;101488.72;6000931;28;20478;-68
2022/10/29 08:41:15;;;;;;;17.33;6.43;;;;;;;18.43;80.91;101506.84;6000602;28;20045;-67
2022/10/29 08:44:33;;;;;;;19.60;6.38;;;;;;;18.20;81.84;101501.47;5999985;28;20038;-68
2022/10/29 08:47:45;;;;;;;21.67;7.57;;;;;;;18.04;82.63;101508.75;6002222;28;20031;-68
2022/10/29 08:50:45;;;;;;;29.55;9.10;;;;;;;17.92;83.19;101513.66;5996930;28;20038;-67
2022/10/29 08:53:46;;;;;;;25.35;9.60;;;;;;;17.87;83.48;101507.97;6000246;28;20031;-67
2022/10/29 08:56:46;;;;;;;26.02;9.40;;;;;;;17.92;83.58;101505.59;6000863;28;20574;-68
2022/10/29 09:00:04;;;;;;;26.75;9.85;;;;;;;18.00;83.13;101497.53;5999510;28;20031;-67
2022/10/29 09:03:00;;;;;;;25.73;11.05;;;;;;;18.23;82.13;101517.22;5999780;28;20034;-67
2022/10/29 09:06:18;;;;;;;24.80;9.50;;;;;;;18.56;80.44;101514.38;5999017;28;20034;-68
2022/10/29 09:09:24;;;;;;;16.02;7.35;;;;;;;18.93;79.65;101515.25;6000800;28;20039;-68
2022/10/29 09:12:38;;;;;;;16.98;6.05;;;;;;;18.61;79.44;101496.69;5998058;28;20042;-67
2022/10/29 09:15:49;;;;;;;17.75;5.70;;;;;;;19.11;78.08;101506.84;6000332;28;20042;-67
2022/10/29 09:18:54;;;;;;;13.73;4.95;;;;;;;19.36;76.03;101491.31;6000676;28;20047;-68
2022/10/29 09:22:11;;;;;;;14.10;5.25;;;;;;;18.89;77.67;101496.97;5994343;28;20039;-67
2022/10/29 09:25:28;;;;;;;15.93;5.30;;;;;;;19.06;77.62;101493.13;6000375;28;20023;-67
2022/10/29 09:28:46;;;;;;;15.68;5.28;;;;;;;19.04;77.83;101476.34;5998628;28;20030;-69
2022/10/29 09:31:46;;;;;;;15.68;5.55;;;;;;;18.96;77.36;101482.63;5987443;28;20470;-67
2022/10/29 09:34:46;;;;;;;19.92;5.65;;;;;;;19.16;77.41;101500.94;5998747;28;20096;-67
2022/10/29 09:37:52;;;;;;;18.92;5.32;;;;;;;19.53;76.21;101487.47;5998186;28;20073;-69
2022/10/29 09:40:48;;;;;;;16.55;4.68;;;;;;;19.59;74.71;101492.94;5999071;28;20059;-69
2022/10/29 09:43:44;;;;;;;16.25;4.82;;;;;;;19.29;76.00;101496.59;5998904;28;20053;-69
2022/10/29 09:46:49;;;;;;;18.47;5.30;;;;;;;18.83;77.75;101487.75;5999716;28;20047;-69
2022/10/29 09:49:59;;;;;;;14.63;4.47;;;;;;;19.13;77.73;101487.84;5997513;28;20035;-69
2022/10/29 09:52:54;;;;;;;17.08;5.07;;;;;;;19.16;76.91;101490.19;5999373;28;20035;-70
2022/10/29 09:55:52;;;;;;;16.17;5.10;;;;;;;18.74;78.31;101472.75;6000900;28;20038;-69
2022/10/29 09:58:52;;;;;;;13.57;5.13;;;;;;;18.81;79.40;101497.88;5999674;28;20035;-69
2022/10/29 10:01:48;;;;;;;14.60;4.97;;;;;;;18.90;78.83;101483.34;6012510;28;20042;-69
2022/10/29 10:04:45;;;;;;;10.65;4.47;;;;;;;18.88;79.32;101482.72;5998143;28;20034;-69
2022/10/29 10:07:41;;;;;;;12.25;4.72;;;;;;;19.20;78.78;101496.84;5999294;28;20118;-67
2022/10/29 10:10:57;;;;;;;16.00;5.25;;;;;;;19.18;77.62;101504.28;5999035;28;20045;-70
2022/10/29 10:13:56;;;;;;;15.90;5.63;;;;;;;19.19;77.61;101495.16;5990003;28;20035;-67
2022/10/29 10:16:56;;;;;;;19.35;5.20;;;;;;;18.95;77.14;101478.25;5983129;28;20817;-69
2022/10/29 10:19:52;;;;;;;16.52;4.90;;;;;;;19.02;77.68;101465.75;6000269;28;20038;-68
2022/10/29 10:22:47;;;;;;;19.87;6.10;;;;;;;18.88;77.34;101471.13;6000411;28;20166;-69
2022/10/29 10:25:43;;;;;;;15.67;4.90;;;;;;;19.14;77.37;101486.81;5985030;28;20023;-69
2022/10/29 10:28:38;;;;;;;18.67;4.80;;;;;;;19.25;76.28;101462.19;5996092;28;20693;-69
2022/10/29 10:31:33;;;;;;;17.07;5.30;;;;;;;19.28;76.19;101484.16;5995200;28;20598;-69
2022/10/29 10:34:32;;;;;;;14.90;5.00;;;;;;;18.88;77.28;101474.66;5996612;28;20129;-70
2022/10/29 10:37:30;;;;;;;15.18;4.88;;;;;;;18.86;77.60;101475.84;5995168;28;20027;-70
2022/10/29 10:40:25;;;;;;;17.30;4.68;;;;;;;18.78;77.96;101465.16;5994350;28;20090;-69
2022/10/29 10:43:22;;;;;;;12.80;4.17;;;;;;;19.08;77.12;101471.44;5993682;28;20031;-70
2022/10/29 10:46:25;;;;;;;16.42;4.82;;;;;;;19.29;75.78;101468.88;5993852;28;20277;-69
2022/10/29 10:49:29;;;;;;;18.65;6.10;;;;;;;19.40;76.00;101471.13;5994824;28;20682;-68
2022/10/29 10:52:27;;;;;;;10.85;4.50;;;;;;;19.20;76.23;101449.28;5995077;28;20122;-67
2022/10/29 10:55:31;;;;;;;12.02;4.10;;;;;;;19.11;76.74;101471.06;5994418;28;20118;-68
2022/10/29 10:58:34;;;;;;;12.88;4.60;;;;;;;18.98;76.92;101451.03;5995920;28;20034;-69
2022/10/29 11:01:40;;;;;;;12.13;3.95;;;;;;;18.95;77.28;101439.78;5993922;28;20038;-67
2022/10/29 11:04:37;;;;;;;13.80;4.25;;;;;;;18.97;77.63;101448.50;5994333;28;20070;-67
2022/10/29 11:07:34;;;;;;;13.60;3.85;;;;;;;18.87;78.22;101439.88;6000520;28;20122;-67
2022/10/29 11:10:35;;;;;;;15.82;4.40;;;;;;;19.21;75.33;101424.06;6002518;28;20086;-67
2022/10/29 11:13:32;;;;;;;12.60;4.22;;;;;;;19.33;74.94;101397.53;6002755;28;20043;-67
2022/10/29 11:16:49;;;;;;;16.90;5.78;;;;;;;19.66;73.81;101396.16;6002395;28;20467;-68
2022/10/29 11:19:47;;;;;;;15.77;4.50;;;;;;;19.86;72.39;101408.00;6010872;28;20073;-67
2022/10/29 11:22:49;;;;;;;12.55;4.63;;;;;;;19.71;72.50;101399.09;5999458;28;20039;-69
2022/10/29 11:26:01;;;;;;;12.45;3.83;;;;;;;19.66;72.88;101408.75;5993588;28;20043;-67
2022/10/29 11:29:31;;;;;;;15.07;3.50;;;;;;;19.65;72.47;101416.00;6002424;28;20039;-67
2022/10/29 11:32:33;;;;;;;11.13;3.67;;;;;;;19.54;72.29;101394.97;5999655;28;20031;-69
2022/10/29 11:35:43;;;;;;;15.13;4.70;;;;;;;19.38;73.59;101395.16;6001308;28;20085;-69
2022/10/29 11:38:43;;;;;;;14.38;4.40;;;;;;;19.24;73.19;101390.59;6001061;28;20097;-66
2022/10/29 11:41:56;;;;;;;15.43;4.57;;;;;;;19.23;73.55;101386.22;6001631;28;20026;-70
2022/10/29 11:44:52;;;;;;;11.98;4.47;;;;;;;19.23;74.32;101379.00;5998943;28;20031;-69
2022/10/29 11:47:53;;;;;;;18.67;4.28;;;;;;;19.50;74.22;101372.13;6002082;28;20133;-70
2022/10/29 11:51:21;;;;;;;9.80;4.53;;;;;;;19.47;74.89;101351.81;6000371;28;20356;-69
2022/10/29 11:54:44;;;;;;;18.80;4.97;;;;;;;19.59;74.11;101379.09;6002029;28;20031;-68
2022/10/29 11:57:51;;;;;;;12.07;3.85;;;;;;;19.77;73.28;101368.75;6001477;28;20043;-69
2022/10/29 12:01:07;;;;;;;12.18;3.78;;;;;;;19.88;72.12;101362.88;6001427;28;20541;-69
2022/10/29 12:04:21;;;;;;;14.50;4.57;;;;;;;19.94;72.65;101367.50;6002396;28;20035;-69
2022/10/29 12:07:55;;;;;;;13.43;4.20;;;;;;;20.14;71.10;101365.81;6000667;28;20046;-69
2022/10/29 12:10:56;;;;;;;17.02;4.20;;;;;;;20.24;71.49;101361.97;5960855;29;20046;-69
2022/10/29 12:13:57;;;;;;;14.40;4.30;;;;;;;19.95;71.65;101358.38;6002142;28;20030;-69
2022/10/29 12:17:10;;;;;;;14.98;4.07;;;;;;;19.81;72.22;101366.50;6001509;28;20121;-69
2022/10/29 12:20:21;;;;;;;12.75;3.97;;;;;;;20.11;71.91;101355.44;5999653;28;20035;-69
2022/10/29 12:23:27;;;;;;;10.63;3.33;;;;;;;20.31;71.03;101346.72;6016128;28;20045;-69
2022/10/29 12:26:32;;;;;;;12.15;3.60;;;;;;;20.32;71.07;101341.16;6001721;28;20034;-68
2022/10/29 12:29:52;;;;;;;19.35;4.47;;;;;;;20.25;70.92;101342.94;6001587;28;20031;-69
2022/10/29 12:32:50;;;;;;;12.52;4.38;;;;;;;20.07;71.24;101334.47;5992291;28;20469;-68
2022/10/29 12:36:22;;;;;;;9.00;3.55;;;;;;;20.01;70.88;101325.28;5991206;28;20026;-69
2022/10/29 12:39:45;;;;;;;14.65;4.55;;;;;;;20.36;70.22;101328.94;6000952;28;20150;-69
2022/10/29 12:42:40;;;;;;;10.00;4.15;;;;;;;20.47;69.17;101308.72;6002947;28;20039;-69
2022/10/29 12:46:00;;;;;;;12.02;3.97;;;;;;;20.58;69.40;101332.44;6000463;28;20046;-69
2022/10/29 12:49:20;;;;;;;7.65;3.22;;;;;;;20.48;70.16;101331.97;6000643;28;20039;-69
2022/10/29 12:52:24;;;;;;;9.82;3.33;;;;;;;20.58;69.44;101327.06;5996606;28;20034;-69
2022/10/29 12:55:19;;;;;;;8.40;3.20;;;;;;;20.10;71.61;101318.75;6000863;28;20110;-69
2022/10/29 12:58:44;;;;;;;13.88;3.42;;;;;;;19.97;71.99;101296.25;5999600;28;20042;-69
2022/10/29 13:01:43;;;;;;;10.35;3.17;;;;;;;20.14;71.45;101284.19;6000619;28;20114;-70
2022/10/29 13:05:05;;;;;;;9.98;3.67;;;;;;;20.14;72.03;101290.41;6000913;28;20035;-69
2022/10/29 13:08:00;;;;;;;10.65;3.80;;;;;;;20.35;71.70;101288.75;6000234;28;20066;-69
2022/10/29 13:10:56;;;;;;;13.43;3.80;;;;;;;20.59;70.67;101277.53;5999874;28;20031;-67
2022/10/29 13:13:54;;;;;;;10.82;4.32;;;;;;;20.68;70.52;101300.59;5999839;28;20546;-69
2022/10/29 13:16:50;;;;;;;13.50;3.85;;;;;;;20.76;70.13;101295.88;5998225;28;20062;-67
2022/10/29 13:19:49;;;;;;;10.23;3.25;;;;;;;21.04;68.14;101287.72;5999573;28;20161;-70
2022/10/29 13:22:58;;;;;;;9.70;3.70;;;;;;;20.69;69.11;101283.38;5998629;28;20497;-70
2022/10/29 13:25:55;;;;;;;10.93;3.60;;;;;;;20.80;69.43;101290.91;5994937;28;20031;-67
2022/10/29 13:28:52;;;;;;;8.63;3.25;;;;;;;20.76;70.12;101289.66;5998704;28;20042;-68
2022/10/29 13:31:48;;;;;;;10.82;3.90;;;;;;;20.84;69.07;101292.19;5998139;28;20031;-68
2022/10/29 13:34:51;;;;;;;13.88;3.33;;;;;;;20.72;67.68;101297.31;5998996;28;20709;-68
2022/10/29 13:37:54;;;;;;;12.82;3.67;;;;;;;20.73;67.26;101298.97;5998871;28;20031;-68
2022/10/29 13:41:04;;;;;;;11.02;3.13;;;;;;;20.68;67.20;101295.22;5998483;28;20039;-68
2022/10/29 13:44:10;;;;;;;12.77;3.55;;;;;;;20.74;67.80;101294.41;5998147;28;20490;-68
2022/10/29 13:47:20;;;;;;;16.02;3.70;;;;;;;20.62;67.69;101294.13;5995338;28;20027;-68